createdAt,value
2023-01-09T00:00:44.787Z,1.90
2023-01-09T00:05:46.417Z,2.20
2023-01-09T00:10:49.689Z,2.15
2023-01-09T00:15:51.476Z,2.20
2023-01-09T00:20:52.982Z,2.67
2023-01-09T00:26:12.620Z,2.60
2023-01-09T00:31:14.933Z,2.00
2023-01-09T00:36:16.507Z,1.90
2023-01-09T00:41:25.362Z,2.33
2023-01-09T00:46:33.291Z,2.03
2023-01-09T00:51:34.924Z,2.25
2023-01-09T00:56:37.060Z,2.10
2023-01-09T01:01:38.617Z,1.90
2023-01-09T01:06:58.541Z,2.40
2023-01-09T01:12:01.501Z,1.80
2023-01-09T01:17:04.045Z,1.90
2023-01-09T01:22:05.559Z,1.38
2023-01-09T01:27:07.070Z,1.80
2023-01-09T01:32:08.729Z,1.85
2023-01-09T01:37:10.390Z,1.52
2023-01-09T01:42:13.754Z,1.40
2023-01-09T01:47:17.549Z,1.50
2023-01-09T01:52:20.097Z,1.40
2023-01-09T01:57:22.097Z,1.60
2023-01-09T02:02:27.990Z,2.25
2023-01-09T02:07:30.148Z,1.63
2023-01-09T02:12:31.664Z,1.90
2023-01-09T02:17:54.297Z,2.60
2023-01-09T02:22:55.710Z,2.13
2023-01-09T02:28:36.288Z,1.63
2023-01-09T02:33:53.841Z,2.13
2023-01-09T02:39:26.240Z,2.70
2023-01-09T02:44:30.185Z,3.00
2023-01-09T02:49:37.894Z,3.10
2023-01-09T02:55:10.266Z,2.90
2023-01-09T03:00:33.868Z,2.60
2023-01-09T03:05:43.966Z,2.90
2023-01-09T03:10:58.355Z,2.88
2023-01-09T03:16:06.226Z,3.00
2023-01-09T03:21:11.140Z,3.55
2023-01-09T03:26:12.692Z,3.45
2023-01-09T03:31:14.863Z,4.13
2023-01-09T03:36:18.509Z,3.55
2023-01-09T03:41:20.333Z,4.57
2023-01-09T03:46:21.901Z,4.53
2023-01-09T03:51:23.379Z,3.80
2023-01-09T03:56:25.597Z,4.28
2023-01-09T04:01:27.259Z,4.55
2023-01-09T04:06:28.868Z,4.75
2023-01-09T04:11:30.386Z,6.10
2023-01-09T04:16:31.944Z,5.57
2023-01-09T04:21:33.628Z,6.43
2023-01-09T04:26:35.136Z,8.13
2023-01-09T04:31:36.630Z,7.25
2023-01-09T04:36:38.729Z,6.15
2023-01-09T04:41:49.200Z,6.28
2023-01-09T04:46:50.731Z,6.50
2023-01-09T04:51:52.340Z,6.10
2023-01-09T04:56:53.817Z,5.30
2023-01-09T05:01:56.301Z,6.32
2023-01-09T05:06:57.834Z,6.28
2023-01-09T05:12:01.650Z,6.43
2023-01-09T05:17:03.321Z,6.90
2023-01-09T05:22:05.061Z,6.57
2023-01-09T05:27:07.011Z,8.00
2023-01-09T05:32:08.530Z,7.18
2023-01-09T05:37:10.041Z,7.07
2023-01-09T05:42:11.569Z,7.05
2023-01-09T05:47:13.053Z,6.75
2023-01-09T05:52:14.838Z,7.57
2023-01-09T05:57:17.153Z,7.55
2023-01-09T06:02:18.835Z,8.27
2023-01-09T06:07:23.278Z,7.60
2023-01-09T06:12:24.938Z,7.07
2023-01-09T06:17:26.459Z,7.07
2023-01-09T06:22:27.993Z,6.63
2023-01-09T06:27:29.499Z,6.15
2023-01-09T06:32:31.015Z,5.72
2023-01-09T06:37:33.325Z,5.57
2023-01-09T06:42:34.864Z,5.50
2023-01-09T06:47:36.353Z,4.60
2023-01-09T06:52:38.340Z,4.65
2023-01-09T06:57:40.392Z,4.78
2023-01-09T07:02:41.918Z,4.65
2023-01-09T07:07:43.415Z,3.85
2023-01-09T07:12:44.944Z,4.63
2023-01-09T07:17:46.446Z,3.70
2023-01-09T07:22:48.029Z,4.10
2023-01-09T07:27:49.506Z,3.42
2023-01-09T07:32:51.047Z,4.05
2023-01-09T07:37:52.563Z,4.03
2023-01-09T07:42:54.084Z,3.53
2023-01-09T07:47:56.178Z,3.85
2023-01-09T07:52:57.731Z,3.90
2023-01-09T07:57:59.229Z,4.45
2023-01-09T08:03:00.743Z,4.70
2023-01-09T08:08:02.421Z,4.80
2023-01-09T08:13:03.966Z,5.07
2023-01-09T08:18:05.519Z,5.20
2023-01-09T08:23:07.101Z,5.60
2023-01-09T08:28:09.355Z,4.90
2023-01-09T08:33:11.279Z,6.10
2023-01-09T08:38:13.180Z,5.90
2023-01-09T08:43:33.191Z,5.53
2023-01-09T08:48:34.699Z,5.90
2023-01-09T08:53:36.283Z,6.20
2023-01-09T08:58:37.784Z,5.38
2023-01-09T09:03:39.255Z,6.35
2023-01-09T09:08:41.281Z,5.90
2023-01-09T09:13:42.839Z,6.53
2023-01-09T09:18:44.377Z,6.80
2023-01-09T09:23:46.161Z,7.32
2023-01-09T09:28:47.645Z,7.65
2023-01-09T09:33:49.176Z,7.70
2023-01-09T09:38:50.762Z,8.73
2023-01-09T09:44:53.865Z,9.70
2023-01-09T09:50:37.164Z,10.65
2023-01-09T09:55:40.820Z,11.00
2023-01-09T10:00:42.539Z,12.52
2023-01-09T10:05:46.306Z,12.63
2023-01-09T10:10:54.584Z,12.43
2023-01-09T10:16:03.731Z,12.77
2023-01-09T10:21:22.006Z,12.85
2023-01-09T10:26:37.661Z,12.82
2023-01-09T10:31:51.351Z,11.80
2023-01-09T10:37:05.613Z,11.20
2023-01-09T10:42:31.824Z,11.35
2023-01-09T10:47:36.191Z,13.40
2023-01-09T10:52:42.020Z,13.10
2023-01-09T10:57:46.119Z,11.98
2023-01-09T11:02:48.614Z,11.68
2023-01-09T11:08:08.407Z,10.48
2023-01-09T11:13:31.763Z,9.73
2023-01-09T11:18:37.369Z,8.80
2023-01-09T11:23:38.908Z,9.13
2023-01-09T11:28:40.474Z,8.63
2023-01-09T11:34:02.000Z,7.20
2023-01-09T11:39:04.239Z,5.30
2023-01-09T11:44:05.831Z,3.70
2023-01-09T11:49:17.825Z,3.72
2023-01-09T11:54:25.290Z,2.80
2023-01-09T11:59:29.318Z,3.30
2023-01-09T12:04:47.735Z,3.55
2023-01-09T12:10:24.274Z,2.97
2023-01-09T12:15:32.154Z,4.38
2023-01-09T12:20:58.358Z,3.65
2023-01-09T12:26:29.234Z,2.83
2023-01-09T12:31:55.562Z,2.60
2023-01-09T12:37:18.549Z,2.80
2023-01-09T12:42:49.853Z,2.75
2023-01-09T12:47:53.374Z,4.05
2023-01-09T12:53:05.567Z,3.03
2023-01-09T12:58:29.631Z,3.20
2023-01-09T13:03:34.052Z,3.47
2023-01-09T13:08:42.794Z,3.55
2023-01-09T13:13:49.917Z,3.67
2023-01-09T13:18:59.246Z,3.08
2023-01-09T13:24:12.702Z,3.45
2023-01-09T13:29:26.783Z,4.93
2023-01-09T13:34:31.149Z,3.35
2023-01-09T13:39:38.079Z,3.63
2023-01-09T13:44:40.149Z,3.50
2023-01-09T13:49:41.688Z,3.88
2023-01-09T13:54:55.402Z,3.75
2023-01-09T14:00:15.360Z,3.90
2023-01-09T14:05:25.525Z,3.85
2023-01-09T14:10:30.180Z,3.05
2023-01-09T14:15:36.705Z,3.35
2023-01-09T14:20:42.168Z,3.33
2023-01-09T14:25:44.611Z,3.47
2023-01-09T14:30:52.142Z,3.45
2023-01-09T14:35:56.715Z,2.80
2023-01-09T14:41:45.889Z,3.03
2023-01-09T14:46:50.442Z,2.60
2023-01-09T14:51:53.598Z,2.90
2023-01-09T14:56:55.164Z,3.85
2023-01-09T15:01:59.276Z,6.32
2023-01-09T15:07:02.990Z,7.00
2023-01-09T15:12:08.936Z,3.55
2023-01-09T15:17:20.812Z,3.50
2023-01-09T15:22:24.070Z,3.88
2023-01-09T15:27:26.321Z,3.33
2023-01-09T15:32:29.841Z,3.33
2023-01-09T15:37:39.182Z,3.47
2023-01-09T15:42:57.450Z,2.97
2023-01-09T15:48:18.394Z,3.15
2023-01-09T15:53:22.683Z,2.95
2023-01-09T15:58:31.986Z,2.95
2023-01-09T16:03:37.373Z,3.20
2023-01-09T16:08:49.864Z,4.30
2023-01-09T16:13:52.394Z,3.55
2023-01-09T16:18:55.513Z,4.45
2023-01-09T16:24:03.871Z,3.95
2023-01-09T16:29:37.558Z,3.42
2023-01-09T16:34:42.425Z,4.20
2023-01-09T16:40:25.748Z,4.10
2023-01-09T16:45:30.327Z,4.20
2023-01-09T16:50:31.963Z,3.30
2023-01-09T16:55:33.449Z,4.70
2023-01-09T17:00:34.982Z,4.00
2023-01-09T17:05:36.477Z,5.28
2023-01-09T17:10:37.980Z,3.97
2023-01-09T17:15:39.566Z,4.25
2023-01-09T17:20:43.371Z,3.95
2023-01-09T17:26:03.666Z,3.60
2023-01-09T17:31:09.073Z,2.47
2023-01-09T17:36:27.062Z,2.90
2023-01-09T17:46:33.424Z,2.00
2023-01-09T17:51:34.940Z,2.25
2023-01-09T17:56:40.001Z,2.00
2023-01-09T18:01:43.082Z,2.50
2023-01-09T18:06:44.699Z,22.80
2023-01-09T18:11:53.283Z,9.25
2023-01-09T18:16:54.910Z,3.00
2023-01-09T18:21:58.459Z,1.80
2023-01-09T18:27:00.254Z,2.03
2023-01-09T18:32:01.771Z,2.90
2023-01-09T18:37:03.324Z,2.78
2023-01-09T18:42:06.142Z,3.40
2023-01-09T18:47:07.732Z,3.30
2023-01-09T18:52:09.233Z,4.07
2023-01-09T18:57:10.788Z,6.28
2023-01-09T19:02:20.974Z,3.88
2023-01-09T19:07:22.635Z,3.65
2023-01-09T19:12:24.116Z,4.70
2023-01-09T19:17:25.608Z,4.05
2023-01-09T19:22:27.225Z,4.22
2023-01-09T19:27:30.480Z,4.95
2023-01-09T19:32:32.014Z,3.92
2023-01-09T19:37:34.956Z,4.88
2023-01-09T19:42:36.480Z,3.35
2023-01-09T19:47:38.050Z,4.75
2023-01-09T19:52:43.129Z,3.85
2023-01-09T19:57:45.199Z,3.78
2023-01-09T20:02:49.329Z,4.22
2023-01-09T20:07:55.087Z,4.40
2023-01-09T20:12:56.643Z,4.60
2023-01-09T20:17:58.203Z,12.60
2023-01-09T20:22:59.731Z,4.22
2023-01-09T20:28:01.297Z,4.25
2023-01-09T20:33:02.770Z,4.30
2023-01-09T20:38:04.378Z,3.67
2023-01-09T20:43:06.530Z,3.40
2023-01-09T20:48:09.123Z,3.40
2023-01-09T20:53:10.644Z,3.30
2023-01-09T20:58:12.173Z,3.70
2023-01-09T21:03:16.558Z,3.40
2023-01-09T21:08:18.083Z,3.95
2023-01-09T21:13:19.569Z,4.07
2023-01-09T21:18:21.112Z,3.22
2023-01-09T21:23:22.886Z,3.40
2023-01-09T21:28:25.184Z,4.88
2023-01-09T21:33:26.734Z,3.97
2023-01-09T21:38:28.404Z,4.10
2023-01-09T21:43:49.113Z,4.30
2023-01-09T21:48:50.688Z,3.58
2023-01-09T21:53:52.172Z,4.00
2023-01-09T21:58:53.640Z,3.50
2023-01-09T22:03:56.622Z,3.97
2023-01-09T22:08:58.183Z,3.47
2023-01-09T22:14:00.412Z,3.17
2023-01-09T22:19:02.171Z,4.07
2023-01-09T22:24:05.146Z,3.30
2023-01-09T22:29:06.693Z,4.28
2023-01-09T22:34:15.406Z,4.00
2023-01-09T22:39:19.052Z,3.50
2023-01-09T22:44:20.906Z,3.25
2023-01-09T22:49:22.366Z,3.05
2023-01-09T22:54:23.946Z,3.67
2023-01-09T22:59:27.184Z,4.03
2023-01-09T23:04:28.734Z,5.13
2023-01-09T23:09:30.231Z,4.68
2023-01-09T23:14:36.991Z,3.38
2023-01-09T23:19:40.304Z,3.00
2023-01-09T23:24:41.782Z,3.55
2023-01-09T23:29:43.254Z,3.53
2023-01-09T23:34:46.949Z,3.83
2023-01-09T23:39:48.505Z,2.80
2023-01-09T23:44:50.047Z,3.28
2023-01-09T23:49:51.648Z,3.08
2023-01-09T23:54:54.117Z,3.42
2023-01-09T23:59:55.596Z,3.90
